Time;durP1;ratioP1;P1;durP2;ratioP2;P2;SDS_P1;SDS_P2;PMS_P1;PMS_P2;Temp;Humidity;BMP_temperature;BMP_pressure;BME280_temperature;BME280_humidity;BME280_pressure;Samples;Min_cycle;Max_cycle;Signal;HPM_P1;HPM_P2
2023/11/02 00:06:59;;;;;;;1.17;0.73;;;13.20;99.90;;;;;;4812214;29;20450;-83
2023/11/02 00:09:58;;;;;;;2.40;1.10;;;13.10;99.90;;;;;;4826755;29;20462;-84
2023/11/02 00:12:48;;;;;;;1.70;1.00;;;13.20;99.90;;;;;;4834515;29;20503;-83
2023/11/02 00:16:05;;;;;;;3.67;0.80;;;13.20;99.90;;;;;;4823530;29;20464;-83
2023/11/02 00:19:05;;;;;;;2.93;1.00;;;13.10;99.90;;;;;;4830851;29;20990;-83
2023/11/02 00:21:42;;;;;;;1.53;0.80;;;13.20;99.90;;;;;;4845005;29;20646;-85
2023/11/02 00:24:27;;;;;;;1.50;0.90;;;13.10;99.90;;;;;;4841323;29;20490;-82
2023/11/02 00:27:17;;;;;;;1.43;0.87;;;13.10;99.90;;;;;;4848175;29;21303;-84
2023/11/02 00:33:12;;;;;;;1.13;0.90;;;13.20;99.90;;;;;;4815398;29;20484;-83
2023/11/02 00:36:18;;;;;;;1.10;0.80;;;13.30;99.90;;;;;;4824141;29;20478;-83
2023/11/02 00:39:59;;;;;;;0.90;0.70;;;13.30;99.90;;;;;;4903206;29;20885;-83
2023/11/02 00:43:04;;;;;;;1.23;0.60;;;13.30;99.90;;;;;;4898952;29;20538;-83
2023/11/02 00:46:01;;;;;;;4.07;1.00;;;13.20;99.90;;;;;;4902283;29;20592;-85
2023/11/02 00:49:13;;;;;;;;;;;;;;;;;;;;;
2023/11/02 00:52:00;;;;;;;1.83;0.73;;;13.40;99.90;;;;;;4890835;29;20476;-84
2023/11/02 00:55:40;;;;;;;0.70;0.70;;;13.50;99.90;;;;;;4873776;29;20480;-84
2023/11/02 01:02:01;;;;;;;1.60;0.70;;;13.50;99.90;;;;;;4894332;29;20467;-84
2023/11/02 01:05:08;;;;;;;1.87;0.83;;;13.40;99.90;;;;;;4862054;29;20578;-83
2023/11/02 01:07:56;;;;;;;2.63;0.97;;;13.40;99.90;;;;;;4904862;29;20451;-84
2023/11/02 01:11:16;;;;;;;2.10;0.80;;;13.50;99.90;;;;;;4922735;29;20484;-82
2023/11/02 01:14:01;;;;;;;3.77;1.00;;;13.40;99.90;;;;;;4879870;29;20510;-83
2023/11/02 01:21:02;;;;;;;;;;;;;;;;;;;;;
2023/11/02 01:24:25;;;;;;;1.07;0.97;;;13.40;99.90;;;;;;4909186;29;20561;-84
2023/11/02 01:27:22;;;;;;;1.70;0.87;;;13.50;99.90;;;;;;4925597;29;20448;-83
2023/11/02 01:30:09;;;;;;;1.80;0.70;;;13.50;99.90;;;;;;4918874;28;20536;-84
2023/11/02 01:33:27;;;;;;;1.50;1.00;;;13.50;99.90;;;;;;4969125;28;20444;-84
2023/11/02 01:36:51;;;;;;;1.17;0.80;;;13.50;99.90;;;;;;4973970;28;20472;-84
2023/11/02 01:43:47;;;;;;;2.23;1.10;;;13.60;99.80;;;;;;4967151;28;20473;-84
2023/11/02 01:47:34;;;;;;;4.93;1.37;;;13.40;99.90;;;;;;4966730;28;20451;-84
2023/11/02 01:50:37;;;;;;;1.07;0.97;;;13.40;99.90;;;;;;4946741;28;20981;-84
2023/11/02 01:54:06;;;;;;;3.90;1.53;;;13.50;99.90;;;;;;4956962;28;20464;-82
2023/11/02 01:57:18;;;;;;;2.43;0.90;;;13.40;99.90;;;;;;4940157;28;20607;-83
2023/11/02 02:03:57;;;;;;;1.47;1.20;;;13.40;99.90;;;;;;4950395;28;20551;-82
2023/11/02 02:07:18;;;;;;;1.20;0.63;;;13.60;99.70;;;;;;4959611;28;20508;-82
2023/11/02 02:10:11;;;;;;;3.13;1.23;;;13.60;99.80;;;;;;4943202;28;20469;-83
2023/11/02 02:13:47;;;;;;;1.00;0.90;;;13.50;99.80;;;;;;4950265;28;20536;-81
2023/11/02 02:20:39;;;;;;;2.20;1.00;;;13.40;99.90;;;;;;4905801;29;20445;-84
2023/11/02 02:23:48;;;;;;;2.30;1.33;;;13.60;99.70;;;;;;4878031;29;20820;-84
2023/11/02 02:31:18;;;;;;;1.47;1.20;;;13.50;99.80;;;;;;4810838;29;20966;-82
2023/11/02 02:34:28;;;;;;;1.37;0.93;;;13.30;99.90;;;;;;4853437;29;20494;-85
2023/11/02 02:37:37;;;;;;;1.87;0.70;;;13.50;99.90;;;;;;4874880;29;20519;-83
2023/11/02 02:41:05;;;;;;;1.03;1.03;;;13.40;99.90;;;;;;4932195;28;20921;-84
2023/11/02 02:44:58;;;;;;;;;;;;;;;;;;;;;
2023/11/02 02:48:16;;;;;;;2.80;1.13;;;13.30;99.90;;;;;;4835502;29;21661;-83
2023/11/02 02:50:59;;;;;;;3.50;1.20;;;13.40;99.90;;;;;;4857120;29;20484;-84
2023/11/02 02:57:19;;;;;;;4.10;1.43;;;13.30;99.90;;;;;;4849382;29;20573;-84
2023/11/02 03:00:28;;;;;;;4.00;1.30;;;13.20;99.90;;;;;;4848259;28;20548;-84
2023/11/02 03:03:15;;;;;;;1.37;0.87;;;13.00;99.90;;;;;;4942468;28;20453;-83
2023/11/02 03:06:01;;;;;;;1.90;1.20;;;13.30;99.90;;;;;;4924716;28;20468;-83
2023/11/02 03:08:58;;;;;;;2.27;1.13;;;13.50;99.90;;;;;;4943657;28;20429;-84
2023/11/02 03:12:21;;;;;;;1.70;1.13;;;13.40;99.90;;;;;;4948348;28;20476;-83
2023/11/02 03:15:28;;;;;;;1.83;1.07;;;13.40;99.80;;;;;;4922351;28;20443;-82
2023/11/02 03:18:26;;;;;;;1.37;1.10;;;13.40;99.60;;;;;;4950608;28;20465;-83
2023/11/02 03:20:57;;;;;;;3.17;1.23;;;13.40;99.50;;;;;;4956193;28;20489;-83
2023/11/02 03:24:26;;;;;;;2.00;1.27;;;13.40;99.50;;;;;;4958172;28;20489;-84
2023/11/02 03:27:28;;;;;;;2.83;0.83;;;13.40;99.50;;;;;;4933788;28;20871;-83
2023/11/02 03:30:18;;;;;;;3.53;0.90;;;13.60;99.20;;;;;;4963193;28;21227;-84
2023/11/02 03:33:50;;;;;;;1.90;0.93;;;13.50;99.20;;;;;;4920623;28;20461;-81
2023/11/02 03:36:54;;;;;;;1.20;1.07;;;13.60;99.10;;;;;;4919572;28;20483;-84
2023/11/02 03:39:45;;;;;;;1.70;0.80;;;13.60;98.50;;;;;;4946342;28;21015;-84
2023/11/02 03:42:49;;;;;;;0.77;0.77;;;13.60;98.40;;;;;;4948953;28;20463;-83
2023/11/02 03:46:10;;;;;;;3.37;0.87;;;13.50;98.20;;;;;;4951099;28;20502;-83
2023/11/02 03:55:44;;;;;;;1.47;0.80;;;13.60;98.10;;;;;;5175305;23;20522;-82
2023/11/02 03:58:46;;;;;;;1.70;0.70;;;13.50;98.20;;;;;;5002361;28;20435;-83
2023/11/02 04:02:01;;;;;;;1.07;0.90;;;13.70;97.90;;;;;;4998040;28;20451;-84
2023/11/02 04:04:57;;;;;;;2.20;0.60;;;13.60;97.90;;;;;;4987827;28;20486;-82
2023/11/02 04:07:55;;;;;;;2.73;0.90;;;13.70;97.80;;;;;;4993048;28;20462;-83
2023/11/02 04:10:43;;;;;;;0.80;0.80;;;13.70;97.50;;;;;;4994424;28;20469;-81
2023/11/02 04:13:50;;;;;;;1.80;0.87;;;13.50;97.90;;;;;;4983294;28;20483;-83
2023/11/02 04:17:18;;;;;;;0.60;0.60;;;13.60;97.80;;;;;;4987129;28;21490;-82
2023/11/02 04:20:29;;;;;;;;;;;;;;;;;;;;;
2023/11/02 04:23:33;;;;;;;0.63;0.63;;;13.50;97.90;;;;;;5011492;28;20570;-83
2023/11/02 04:26:45;;;;;;;2.50;0.70;;;13.60;97.70;;;;;;5016181;28;20438;-82
2023/11/02 04:30:10;;;;;;;2.83;0.80;;;13.60;97.60;;;;;;5007152;28;20441;-84
2023/11/02 04:33:17;;;;;;;;;;;;;;;;;;;;;
2023/11/02 04:36:03;;;;;;;0.60;0.53;;;13.60;97.50;;;;;;5017442;28;20840;-82
2023/11/02 04:39:32;;;;;;;;;;;;;;;;;;;;;
2023/11/02 04:49:02;;;;;;;1.73;0.67;;;13.40;97.70;;;;;;4965968;28;20444;-84
2023/11/02 04:52:26;;;;;;;3.17;1.73;;;13.40;98.00;;;;;;4949587;28;20452;-82
2023/11/02 04:55:55;;;;;;;1.33;0.60;;;13.40;97.90;;;;;;4923805;28;20598;-83
2023/11/02 04:58:34;;;;;;;1.33;0.70;;;;;;;;;;4943418;28;20466;-83
2023/11/02 05:01:57;;;;;;;0.60;0.50;;;;;;;;;;4936184;28;20445;-83
2023/11/02 05:05:14;;;;;;;0.90;0.80;;;;;;;;;;4961783;28;20492;-83
2023/11/02 05:08:08;;;;;;;3.23;0.97;;;;;;;;;;4960380;28;20499;-84
2023/11/02 05:11:26;;;;;;;;;;;;;;;;;;;;;
2023/11/02 05:14:56;;;;;;;1.57;0.77;;;;;;;;;;4949374;28;20536;-84
2023/11/02 05:17:37;;;;;;;3.20;1.00;;;;;;;;;;4944941;28;21028;-83
2023/11/02 05:20:25;;;;;;;1.73;0.60;;;;;;;;;;4927340;28;20691;-83
2023/11/02 05:26:25;;;;;;;1.63;0.93;;;;;;;;;;4927332;28;20462;-81
2023/11/02 05:29:30;;;;;;;1.43;0.67;;;;;;;;;;4911682;28;20508;-84
2023/11/02 05:35:46;;;;;;;6.53;1.70;;;13.90;98.70;;;;;;5015254;28;20492;-84
2023/11/02 05:38:55;;;;;;;3.40;1.20;;;13.20;98.00;;;;;;5017207;28;20453;-83
2023/11/02 05:48:47;;;;;;;2.10;0.80;;;;;;;;;;4941183;28;20764;-83
2023/11/02 05:52:02;;;;;;;5.03;0.90;;;;;;;;;;4931422;28;20538;-83
2023/11/02 05:54:52;;;;;;;3.07;1.00;;;13.40;97.30;;;;;;4929262;28;20492;-84
2023/11/02 05:57:43;;;;;;;1.60;0.90;;;13.30;97.50;;;;;;4943440;28;21055;-83
2023/11/02 06:00:25;;;;;;;1.70;1.00;;;13.40;98.10;;;;;;4980967;28;20609;-83
2023/11/02 06:03:51;;;;;;;1.90;0.87;;;13.40;97.90;;;;;;4991676;28;20457;-84
2023/11/02 06:07:07;;;;;;;1.77;0.83;;;13.50;98.10;;;;;;4991603;28;20449;-83
2023/11/02 06:10:02;;;;;;;1.27;0.60;;;13.70;98.00;;;;;;5003445;28;20446;-83
2023/11/02 06:12:52;;;;;;;0.77;0.53;;;13.70;97.90;;;;;;4999503;28;20462;-83
2023/11/02 06:16:06;;;;;;;0.47;0.47;;;13.70;98.00;;;;;;4997823;28;20454;-82
2023/11/02 06:19:17;;;;;;;1.50;0.60;;;13.60;98.30;;;;;;4996311;28;20455;-83
2023/11/02 06:22:17;;;;;;;0.60;0.50;;;13.50;98.50;;;;;;4986630;28;20457;-81
2023/11/02 06:28:19;;;;;;;3.93;0.70;;;13.50;99.10;;;;;;4972034;28;20420;-82
2023/11/02 06:31:43;;;;;;;0.70;0.63;;;13.40;99.30;;;;;;5006512;28;20435;-83
2023/11/02 06:34:21;;;;;;;0.60;0.60;;;13.50;99.60;;;;;;5001880;28;20545;-83
2023/11/02 06:37:21;;;;;;;0.70;0.63;;;13.30;99.60;;;;;;4978137;28;20433;-83
2023/11/02 06:46:55;;;;;;;2.47;0.70;;;13.50;99.90;;;;;;4897615;28;20452;-84
2023/11/02 06:49:56;;;;;;;1.73;0.70;;;13.50;99.90;;;;;;4922337;28;20481;-84
2023/11/02 07:02:55;;;;;;;1.40;0.50;;;13.60;99.30;;;;;;4887257;28;20441;-84
2023/11/02 07:05:55;;;;;;;1.30;0.50;;;13.70;99.90;;;;;;4940866;28;20559;-83
2023/11/02 07:08:43;;;;;;;1.17;0.50;;;13.60;99.90;;;;;;4918473;28;20569;-82
2023/11/02 07:11:12;;;;;;;0.80;0.50;;;13.60;99.90;;;;;;4931292;28;20458;-84
2023/11/02 07:14:03;;;;;;;0.97;0.50;;;13.50;99.90;;;;;;4923293;28;20454;-84
2023/11/02 07:16:40;;;;;;;0.93;0.50;;;13.40;99.90;;;;;;4933848;28;20500;-84
2023/11/02 07:19:15;;;;;;;0.57;0.57;;;13.00;99.90;;;;;;4934416;28;20461;-84
2023/11/02 07:21:54;;;;;;;2.70;0.60;;;13.00;99.90;;;;;;4920146;28;22032;-84
2023/11/02 07:24:50;;;;;;;0.80;0.70;;;12.90;99.90;;;;;;4973311;28;20486;-83
2023/11/02 07:27:19;;;;;;;2.37;0.80;;;12.80;99.90;;;;;;4978902;28;21144;-84
2023/11/02 07:30:03;;;;;;;0.83;0.67;;;13.10;99.90;;;;;;4991837;28;20459;-83
2023/11/02 07:33:03;;;;;;;0.83;0.50;;;13.10;99.90;;;;;;4983064;28;20454;-84
2023/11/02 07:35:46;;;;;;;0.60;0.60;;;13.00;99.90;;;;;;4966225;28;20462;-83
2023/11/02 07:38:16;;;;;;;1.83;1.07;;;13.30;99.90;;;;;;4996229;28;20459;-83
2023/11/02 07:44:46;;;;;;;0.90;0.50;;;13.30;99.90;;;;;;4938894;29;21235;-84
2023/11/02 07:47:20;;;;;;;1.73;0.80;;;13.20;99.90;;;;;;4934222;29;20472;-83
2023/11/02 07:49:49;;;;;;;2.03;0.90;;;13.20;99.90;;;;;;4926785;29;20458;-83
2023/11/02 07:52:22;;;;;;;1.80;0.73;;;13.20;99.90;;;;;;4966053;28;20442;-82
2023/11/02 07:54:55;;;;;;;2.50;0.50;;;13.20;99.90;;;;;;5000447;28;20466;-82
2023/11/02 07:57:27;;;;;;;0.90;0.50;;;13.20;99.90;;;;;;4999201;28;20458;-82
2023/11/02 07:59:54;;;;;;;1.57;1.03;;;13.20;99.90;;;;;;4998501;28;20530;-83
2023/11/02 08:02:21;;;;;;;0.70;0.70;;;13.20;99.90;;;;;;4988244;28;20558;-83
2023/11/02 08:04:48;;;;;;;0.63;0.63;;;13.30;99.90;;;;;;4975169;28;20518;-82
2023/11/02 08:07:15;;;;;;;0.43;0.43;;;13.40;99.90;;;;;;4989091;28;20536;-83
2023/11/02 08:09:42;;;;;;;0.50;0.50;;;13.50;99.90;;;;;;4987142;28;20438;-84
2023/11/02 08:12:10;;;;;;;0.87;0.70;;;13.30;99.90;;;;;;4992059;28;20509;-84
2023/11/02 08:14:37;;;;;;;1.07;0.60;;;13.40;99.90;;;;;;4970039;28;20484;-83
2023/11/02 08:17:05;;;;;;;2.20;0.60;;;13.40;99.90;;;;;;4983025;28;20485;-83
2023/11/02 08:19:32;;;;;;;2.30;0.70;;;13.50;99.90;;;;;;4973732;28;20517;-83
2023/11/02 08:21:59;;;;;;;1.97;0.90;;;13.50;99.90;;;;;;4981144;28;20455;-82
2023/11/02 08:24:26;;;;;;;0.80;0.70;;;13.50;99.90;;;;;;4990216;28;20488;-84
2023/11/02 08:26:53;;;;;;;0.97;0.70;;;13.50;99.90;;;;;;4999124;28;20497;-82
2023/11/02 08:29:21;;;;;;;0.70;0.70;;;13.70;99.90;;;;;;4973355;28;20549;-83
2023/11/02 08:31:48;;;;;;;0.80;0.80;;;13.70;99.90;;;;;;4992774;28;20451;-83
2023/11/02 08:34:15;;;;;;;0.60;0.53;;;13.80;99.90;;;;;;4993358;28;20502;-83
2023/11/02 08:36:43;;;;;;;0.73;0.60;;;13.80;99.90;;;;;;5011448;28;20555;-82
2023/11/02 08:39:11;;;;;;;0.97;0.60;;;13.80;99.90;;;;;;5012227;28;20441;-83
2023/11/02 08:41:38;;;;;;;1.37;0.60;;;13.80;99.90;;;;;;5012217;28;20537;-82
2023/11/02 08:44:06;;;;;;;0.60;0.60;;;13.80;99.90;;;;;;5012188;28;20469;-82
2023/11/02 08:46:36;;;;;;;2.23;0.70;;;14.00;99.90;;;;;;5009578;28;20478;-82
2023/11/02 08:49:03;;;;;;;1.23;0.70;;;14.00;99.90;;;;;;4990484;28;20493;-84
2023/11/02 08:51:30;;;;;;;2.20;0.80;;;14.00;99.90;;;;;;4991780;28;20579;-83
2023/11/02 08:53:59;;;;;;;0.67;0.67;;;14.10;99.90;;;;;;4983977;28;20493;-83
2023/11/02 08:56:26;;;;;;;2.17;0.70;;;14.00;99.90;;;;;;4986453;28;20485;-83
2023/11/02 08:58:54;;;;;;;1.33;0.70;;;14.20;99.90;;;;;;4984632;28;20455;-83
2023/11/02 09:01:24;;;;;;;2.93;1.03;;;14.20;99.90;;;;;;4995006;28;20458;-83
2023/11/02 09:03:53;;;;;;;0.77;0.70;;;14.30;99.90;;;;;;4986042;28;20481;-84
2023/11/02 09:06:22;;;;;;;0.80;0.60;;;14.20;99.90;;;;;;4989388;28;20502;-84
2023/11/02 09:08:51;;;;;;;0.80;0.67;;;14.30;99.90;;;;;;4995552;28;20480;-84
2023/11/02 09:11:19;;;;;;;0.63;0.63;;;14.30;99.90;;;;;;4991961;28;20513;-83
2023/11/02 09:13:47;;;;;;;1.17;0.50;;;14.30;99.90;;;;;;4984609;28;20916;-81
2023/11/02 09:16:14;;;;;;;1.93;0.70;;;14.30;99.90;;;;;;4985648;28;20447;-83
2023/11/02 09:18:42;;;;;;;1.40;0.70;;;14.30;99.90;;;;;;4987172;28;21159;-82
2023/11/02 09:21:10;;;;;;;1.00;0.80;;;14.50;99.90;;;;;;4988914;28;20557;-83
2023/11/02 09:23:37;;;;;;;1.80;0.60;;;14.50;99.90;;;;;;4988620;28;21009;-84
2023/11/02 09:26:05;;;;;;;2.20;0.83;;;14.60;99.90;;;;;;4997390;28;20502;-83
2023/11/02 09:28:33;;;;;;;0.70;0.67;;;14.70;99.90;;;;;;4988654;28;20721;-81
2023/11/02 09:31:01;;;;;;;0.97;0.60;;;14.70;99.90;;;;;;5004082;28;20455;-81
2023/11/02 09:33:29;;;;;;;0.63;0.63;;;14.80;99.90;;;;;;4989723;28;20478;-82
2023/11/02 09:35:57;;;;;;;1.53;0.63;;;14.90;99.90;;;;;;4980433;28;21442;-83
2023/11/02 09:38:25;;;;;;;0.90;0.63;;;15.00;99.90;;;;;;4981044;28;20478;-83
2023/11/02 09:40:52;;;;;;;0.83;0.60;;;15.00;99.90;;;;;;5003884;28;20491;-84
2023/11/02 09:43:20;;;;;;;1.53;0.60;;;15.10;99.90;;;;;;4994863;28;20486;-83
2023/11/02 09:45:50;;;;;;;1.00;0.60;;;15.10;99.90;;;;;;4987329;28;20478;-82
2023/11/02 09:48:17;;;;;;;2.93;0.90;;;15.10;99.70;;;;;;4992382;28;20505;-83
2023/11/02 09:50:44;;;;;;;1.30;0.50;;;15.40;99.20;;;;;;4989724;28;20455;-82
2023/11/02 09:53:12;;;;;;;1.27;0.60;;;15.40;98.90;;;;;;5002811;28;20470;-82
2023/11/02 09:55:40;;;;;;;1.60;0.63;;;15.30;98.40;;;;;;5004741;28;20461;-85
2023/11/02 09:58:10;;;;;;;1.27;0.80;;;15.40;98.30;;;;;;4987344;28;20572;-84
2023/11/02 10:00:38;;;;;;;1.80;0.73;;;15.20;98.50;;;;;;5004532;28;20438;-80
2023/11/02 10:03:08;;;;;;;0.80;0.60;;;15.40;98.50;;;;;;4991217;28;21088;-83
2023/11/02 10:05:35;;;;;;;4.33;1.27;;;15.60;97.60;;;;;;5006662;28;20501;-83
2023/11/02 10:08:03;;;;;;;2.00;0.90;;;15.70;97.30;;;;;;4989484;28;20488;-83
2023/11/02 10:10:32;;;;;;;3.73;2.80;;;15.80;96.90;;;;;;4989309;28;20459;-83
2023/11/02 10:13:02;;;;;;;2.63;0.80;;;15.80;96.60;;;;;;4985865;28;20462;-81
2023/11/02 10:15:30;;;;;;;1.47;1.07;;;15.80;96.50;;;;;;4990210;28;21003;-82
2023/11/02 10:17:57;;;;;;;6.13;0.80;;;15.80;96.40;;;;;;4986611;28;20446;-82
2023/11/02 10:20:25;;;;;;;3.70;0.80;;;16.00;96.10;;;;;;4989373;28;20455;-84
2023/11/02 10:23:11;;;;;;;2.20;0.70;;;16.10;95.60;;;;;;4979187;28;20555;-82
2023/11/02 10:25:40;;;;;;;0.80;0.60;;;16.00;95.30;;;;;;4974945;28;20489;-84
2023/11/02 10:28:07;;;;;;;6.83;1.97;;;16.00;95.30;;;;;;4979369;28;20462;-83
2023/11/02 10:30:37;;;;;;;1.73;0.90;;;15.90;95.00;;;;;;4985526;28;21059;-84
2023/11/02 10:33:08;;;;;;;2.20;0.90;;;16.00;95.00;;;;;;4995186;28;20694;-82
2023/11/02 10:35:38;;;;;;;2.77;0.90;;;16.00;94.70;;;;;;4978448;28;20463;-83
2023/11/02 10:38:09;;;;;;;0.67;0.60;;;15.90;94.70;;;;;;4990907;28;20473;-85
2023/11/02 10:40:47;;;;;;;2.90;1.43;;;16.00;94.80;;;;;;4996916;28;20466;-82
2023/11/02 10:43:24;;;;;;;3.40;0.83;;;16.00;94.50;;;;;;5013348;28;20489;-82
2023/11/02 10:46:20;;;;;;;2.80;1.10;;;16.10;94.50;;;;;;4991604;28;20508;-83
2023/11/02 10:49:10;;;;;;;2.87;1.20;;;16.10;94.30;;;;;;5016289;28;20477;-83
2023/11/02 10:55:59;;;;;;;2.20;1.03;;;16.20;93.80;;;;;;4996511;28;20557;-83
2023/11/02 10:58:59;;;;;;;1.90;0.73;;;16.20;93.10;;;;;;4979087;28;20482;-82
2023/11/02 11:01:44;;;;;;;;;;;;;;;;;;;;;
2023/11/02 11:04:26;;;;;;;1.90;0.80;;;16.20;92.80;;;;;;4995493;28;20473;-84
2023/11/02 11:07:39;;;;;;;4.70;1.00;;;16.20;92.80;;;;;;4976827;28;20576;-83
2023/11/02 11:10:48;;;;;;;3.23;1.07;;;16.30;92.60;;;;;;4986696;28;20461;-83
2023/11/02 11:13:53;;;;;;;5.50;1.00;;;16.30;92.20;;;;;;4990688;28;20480;-82
2023/11/02 11:16:35;;;;;;;0.90;0.80;;;16.20;92.20;;;;;;4989215;28;20489;-82
2023/11/02 11:19:08;;;;;;;2.10;0.70;;;;;;;;;;4990449;28;20454;-83
2023/11/02 11:21:49;;;;;;;1.93;1.00;;;;;;;;;;4988221;28;20549;-83
2023/11/02 11:24:40;;;;;;;3.43;1.03;;;;;;;;;;4979567;28;20485;-83
2023/11/02 11:27:37;;;;;;;1.93;0.83;;;;;;;;;;4987565;28;20549;-82
2023/11/02 11:30:46;;;;;;;2.63;0.80;;;;;;;;;;4999892;28;20499;-85
2023/11/02 11:34:02;;;;;;;5.37;0.87;;;;;;;;;;4996702;28;20481;-85
2023/11/02 11:36:59;;;;;;;0.63;0.60;;;;;;;;;;4982375;28;20451;-84
2023/11/02 11:40:03;;;;;;;1.73;0.90;;;;;;;;;;4997260;28;20472;-84
2023/11/02 11:43:15;;;;;;;2.23;0.80;;;;;;;;;;4985657;28;20480;-83
2023/11/02 11:45:53;;;;;;;2.70;0.90;;;;;;;;;;4978080;28;20594;-83
2023/11/02 11:49:02;;;;;;;1.73;0.97;;;;;;;;;;4992266;28;20522;-83
2023/11/02 11:54:31;;;;;;;1.57;0.77;;;16.50;88.60;;;;;;4976028;28;20479;-83
2023/11/02 11:57:30;;;;;;;2.40;0.80;;;16.60;88.50;;;;;;5001380;28;20484;-84
2023/11/02 12:00:24;;;;;;;2.23;0.97;;;16.60;88.50;;;;;;5000677;28;20802;-82
2023/11/02 12:03:06;;;;;;;9.83;1.47;;;16.60;87.80;;;;;;4986939;28;20489;-82
2023/11/02 12:09:16;;;;;;;2.83;0.70;;;16.60;87.90;;;;;;5002860;28;20438;-83
2023/11/02 12:12:14;;;;;;;2.63;2.40;;;16.70;86.30;;;;;;4982245;28;20461;-85
2023/11/02 12:18:13;;;;;;;2.97;0.70;;;;;;;;;;4973994;28;20462;-84
2023/11/02 12:20:58;;;;;;;1.60;0.83;;;;;;;;;;4915119;29;21171;-83
2023/11/02 12:23:47;;;;;;;6.43;1.43;;;;;;;;;;4942751;28;20610;-83
2023/11/02 12:26:49;;;;;;;1.80;0.90;;;;;;;;;;4992834;28;20846;-80
2023/11/02 12:29:41;;;;;;;2.47;0.77;;;;;;;;;;5002904;28;21571;-85
2023/11/02 12:32:15;;;;;;;1.47;0.80;;;;;;;;;;4998776;28;20461;-84
2023/11/02 12:34:54;;;;;;;3.23;1.10;;;;;;;;;;4984701;28;20475;-85
2023/11/02 12:37:50;;;;;;;10.23;1.47;;;;;;;;;;4993723;28;20458;-84
2023/11/02 12:40:24;;;;;;;5.10;0.90;;;16.60;84.30;;;;;;4999390;28;20470;-84
2023/11/02 12:46:14;;;;;;;1.10;0.63;;;;;;;;;;4973352;28;20482;-83
2023/11/02 12:48:51;;;;;;;4.43;1.10;;;;;;;;;;4992572;28;20470;-82
2023/11/02 12:51:40;;;;;;;1.67;0.90;;;;;;;;;;4982303;28;21046;-82
2023/11/02 12:54:37;;;;;;;5.20;1.33;;;16.70;80.70;;;;;;4985962;28;20507;-83
2023/11/02 12:57:40;;;;;;;7.43;1.63;;;16.50;81.10;;;;;;4999460;28;20465;-84
2023/11/02 13:00:23;;;;;;;2.60;1.10;;;16.50;81.20;;;;;;4984024;28;20490;-84
2023/11/02 13:03:27;;;;;;;3.80;1.40;;;;;;;;;;5014796;28;20476;-84
2023/11/02 13:06:53;;;;;;;;;;;;;;;;;;;;;
2023/11/02 13:09:57;;;;;;;3.67;1.30;;;16.60;81.10;;;;;;5016061;28;20458;-83
2023/11/02 13:12:44;;;;;;;1.43;0.87;;;16.50;79.40;;;;;;5017197;28;20451;-81
2023/11/02 13:15:30;;;;;;;5.30;1.40;;;16.60;79.60;;;;;;4985594;28;20438;-83
2023/11/02 13:18:23;;;;;;;1.90;0.70;;;16.60;79.20;;;;;;4991713;28;20465;-84
2023/11/02 13:21:12;;;;;;;0.50;0.50;;;16.50;78.90;;;;;;4998678;28;20452;-83
2023/11/02 13:24:00;;;;;;;2.97;1.10;;;16.40;80.20;;;;;;4990576;28;20510;-84
2023/11/02 13:27:09;;;;;;;2.43;1.47;;;16.40;79.50;;;;;;4987472;28;20482;-84
2023/11/02 13:29:44;;;;;;;2.37;1.30;;;16.40;79.50;;;;;;4992628;28;20460;-84
2023/11/02 13:32:45;;;;;;;2.63;0.90;;;16.30;79.40;;;;;;5005906;28;20974;-84
2023/11/02 13:35:33;;;;;;;4.23;1.17;;;16.30;79.10;;;;;;5009382;28;20463;-83
2023/11/02 13:38:36;;;;;;;3.23;1.10;;;16.40;79.70;;;;;;5009242;28;20477;-83
2023/11/02 13:41:43;;;;;;;;;;;;;;;;;;;;;
2023/11/02 13:44:39;;;;;;;4.23;1.00;;;16.30;78.80;;;;;;5015519;28;20468;-83
2023/11/02 13:48:17;;;;;;;0.63;0.60;;;16.10;79.60;;;;;;4981092;28;20620;-81
2023/11/02 13:51:05;;;;;;;2.27;0.83;;;15.80;80.00;;;;;;4982376;28;20496;-84
2023/11/02 13:53:55;;;;;;;2.00;0.60;;;15.70;81.50;;;;;;4989672;28;20521;-81
2023/11/02 13:56:58;;;;;;;7.00;1.13;;;15.60;84.80;;;;;;5018746;28;20984;-83
2023/11/02 13:59:49;;;;;;;1.50;0.63;;;15.50;85.30;;;;;;5002629;28;20803;-83
2023/11/02 14:02:41;;;;;;;2.63;1.13;;;;;;;;;;5007547;28;21025;-82
2023/11/02 14:05:51;;;;;;;3.63;1.33;;;;;;;;;;5007148;28;20450;-82
2023/11/02 14:08:37;;;;;;;2.73;1.33;;;;;;;;;;4999993;28;20569;-82
2023/11/02 14:11:38;;;;;;;3.13;0.70;;;;;;;;;;4995847;28;20531;-84
2023/11/02 14:14:08;;;;;;;2.60;1.10;;;15.40;86.50;;;;;;5000358;28;20597;-82
2023/11/02 14:16:56;;;;;;;4.37;1.90;;;15.50;87.60;;;;;;4993047;28;20457;-83
2023/11/02 14:19:52;;;;;;;2.97;1.20;;;;;;;;;;4996278;28;20447;-83
2023/11/02 14:22:50;;;;;;;2.50;0.77;;;;;;;;;;5003773;28;20440;-82
2023/11/02 14:25:37;;;;;;;5.13;1.10;;;;;;;;;;4998092;28;20475;-83
2023/11/02 14:28:32;;;;;;;1.97;0.90;;;;;;;;;;5014984;28;20470;-82
2023/11/02 14:31:12;;;;;;;1.73;1.57;;;;;;;;;;5003963;28;20537;-83
2023/11/02 14:33:59;;;;;;;3.13;1.33;;;15.40;87.60;;;;;;5015571;28;20486;-83
2023/11/02 14:37:25;;;;;;;2.97;1.10;;;;;;;;;;4999852;28;20493;-84
2023/11/02 14:40:31;;;;;;;2.10;0.63;;;;;;;;;;4991333;28;21858;-82
2023/11/02 14:43:36;;;;;;;2.30;0.90;;;15.40;88.60;;;;;;4972682;28;20463;-83
2023/11/02 14:46:25;;;;;;;7.30;1.17;;;15.40;84.80;;;;;;4999328;28;20465;-84
2023/11/02 14:49:16;;;;;;;1.60;0.80;;;15.50;83.60;;;;;;4978536;28;20451;-85
2023/11/02 14:52:30;;;;;;;3.10;0.70;;;15.50;82.40;;;;;;4989063;28;20494;-83
2023/11/02 14:55:46;;;;;;;3.73;1.20;;;15.50;82.80;;;;;;4978531;28;20941;-83
2023/11/02 14:58:41;;;;;;;4.13;1.23;;;15.50;83.50;;;;;;4990266;28;20474;-82
2023/11/02 15:01:17;;;;;;;1.80;0.90;;;15.50;83.40;;;;;;4978633;28;20542;-81
2023/11/02 15:03:52;;;;;;;2.73;1.30;;;15.40;83.80;;;;;;4965847;28;20530;-85
2023/11/02 15:06:31;;;;;;;2.10;0.90;;;15.30;84.30;;;;;;4963017;28;20455;-85
2023/11/02 15:09:08;;;;;;;2.77;0.97;;;15.30;84.80;;;;;;4951698;28;20451;-82
2023/11/02 15:11:38;;;;;;;2.50;1.80;;;15.30;84.60;;;;;;4986143;28;20452;-83
2023/11/02 15:14:14;;;;;;;4.07;0.90;;;15.30;84.70;;;;;;4967543;28;20553;-82
2023/11/02 15:16:52;;;;;;;5.50;1.27;;;;;;;;;;4969259;28;20472;-82
2023/11/02 15:19:22;;;;;;;2.50;1.20;;;15.20;82.20;;;;;;4981949;28;20821;-82
2023/11/02 15:22:04;;;;;;;5.10;1.63;;;15.30;82.10;;;;;;4981487;28;20506;-82
2023/11/02 15:25:03;;;;;;;7.93;1.43;;;15.30;82.40;;;;;;4946405;28;20466;-83
2023/11/02 15:27:54;;;;;;;5.93;1.80;;;15.30;82.80;;;;;;4972127;28;20515;-83
2023/11/02 15:30:29;;;;;;;13.27;1.30;;;15.20;83.00;;;;;;4997566;28;20447;-83
2023/11/02 15:33:14;;;;;;;2.60;1.10;;;15.20;83.80;;;;;;4979088;28;20473;-81
2023/11/02 15:36:05;;;;;;;;;;;;;;;;;;;;;
2023/11/02 15:39:00;;;;;;;8.40;1.17;;;15.00;84.30;;;;;;5009171;28;20438;-82
2023/11/02 15:41:42;;;;;;;7.53;1.60;;;14.90;85.40;;;;;;5013970;28;20439;-81
2023/11/02 15:44:20;;;;;;;4.67;1.37;;;14.90;86.00;;;;;;4974171;28;20463;-83
2023/11/02 15:47:16;;;;;;;5.70;1.77;;;14.80;86.80;;;;;;4979376;28;20574;-81
2023/11/02 15:50:25;;;;;;;5.33;1.70;;;14.80;87.60;;;;;;5000451;28;20439;-82
2023/11/02 15:52:57;;;;;;;2.80;1.10;;;14.70;87.90;;;;;;4977643;28;20445;-82
2023/11/02 15:55:58;;;;;;;6.37;1.30;;;14.80;88.20;;;;;;5000830;28;20450;-81
2023/11/02 16:11:58;;;;;;;3.23;1.57;;;14.70;88.00;;;;;;6360464;22;20304;-82
2023/11/02 16:14:32;;;;;;;5.40;1.30;;;14.80;88.30;;;;;;6069662;22;4597847;-83
2023/11/02 16:17:03;;;;;;;6.03;1.80;;;14.70;88.10;;;;;;6208013;23;20303;-84
2023/11/02 16:19:39;;;;;;;3.60;1.33;;;14.70;87.90;;;;;;6232858;23;20550;-83
2023/11/02 16:22:22;;;;;;;5.23;1.37;;;14.70;87.60;;;;;;6191780;23;20410;-81
2023/11/02 16:24:57;;;;;;;3.53;1.20;;;14.70;87.50;;;;;;6239085;23;20502;-82
2023/11/02 16:27:39;;;;;;;3.90;1.63;;;14.70;87.30;;;;;;6270827;23;20371;-82
2023/11/02 16:30:29;;;;;;;7.13;2.70;;;14.60;87.50;;;;;;6270706;23;20402;-81
2023/11/02 16:33:13;;;;;;;4.77;1.30;;;14.70;87.20;;;;;;6266270;23;20568;-82
2023/11/02 16:35:50;;;;;;;5.83;2.57;;;14.70;86.20;;;;;;6239130;23;20408;-80
2023/11/02 16:38:23;;;;;;;6.87;1.33;;;14.70;86.20;;;;;;6236324;23;20411;-82
2023/11/02 16:44:23;;;;;;;3.40;1.30;;;14.60;84.80;;;;;;6174647;23;20428;-82
2023/11/02 16:46:59;;;;;;;5.17;1.50;;;14.60;84.50;;;;;;6234482;23;20417;-83
2023/11/02 16:49:32;;;;;;;2.77;1.07;;;14.60;84.40;;;;;;6257668;23;20430;-81
2023/11/02 16:52:04;;;;;;;5.70;1.77;;;14.60;84.20;;;;;;6230956;23;20414;-84
2023/11/02 16:54:33;;;;;;;4.43;1.93;;;14.60;84.00;;;;;;6232119;23;20427;-82
2023/11/02 16:57:28;;;;;;;5.03;2.03;;;14.60;83.80;;;;;;6251926;23;20442;-83
2023/11/02 17:00:15;;;;;;;5.00;1.83;;;14.60;83.80;;;;;;6202461;23;20906;-85
2023/11/02 17:02:44;;;;;;;4.67;1.80;;;14.60;84.00;;;;;;6230942;23;20433;-82
2023/11/02 17:06:02;;;;;;;5.03;2.30;;;14.50;83.80;;;;;;6207473;23;20453;-84
2023/11/02 17:09:05;;;;;;;4.30;1.23;;;14.60;83.30;;;;;;6220761;23;20479;-84
2023/11/02 17:11:47;;;;;;;3.70;1.23;;;14.50;82.40;;;;;;6170045;23;20432;-83
2023/11/02 17:14:44;;;;;;;5.37;1.90;;;14.40;82.60;;;;;;6287343;22;20460;-83
2023/11/02 17:17:36;;;;;;;4.43;1.50;;;14.40;82.50;;;;;;6313912;22;20402;-82